sensor_id;sensor_type;location;lat;lon;timestamp;P1;durP1;ratioP1;P2;durP2;ratioP2
23617;SDS011;18207;32.078;34.818;2023-03-03T00:02:17;3.38;;;1.92;;
23617;SDS011;18207;32.078;34.818;2023-03-03T00:04:49;4.47;;;1.80;;
23617;SDS011;18207;32.078;34.818;2023-03-03T00:07:19;4.45;;;1.85;;
23617;SDS011;18207;32.078;34.818;2023-03-03T00:09:49;4.68;;;1.90;;
23617;SDS011;18207;32.078;34.818;2023-03-03T00:12:22;3.75;;;2.03;;
23617;SDS011;18207;32.078;34.818;2023-03-03T00:14:54;4.45;;;1.88;;
23617;SDS011;18207;32.078;34.818;2023-03-03T00:17:26;5.20;;;2.17;;
23617;SDS011;18207;32.078;34.818;2023-03-03T00:20:00;6.82;;;2.20;;
23617;SDS011;18207;32.078;34.818;2023-03-03T00:22:57;7.50;;;1.92;;
23617;SDS011;18207;32.078;34.818;2023-03-03T00:25:48;4.13;;;2.13;;
23617;SDS011;18207;32.078;34.818;2023-03-03T00:28:22;4.13;;;1.80;;
23617;SDS011;18207;32.078;34.818;2023-03-03T00:30:55;5.00;;;2.15;;
23617;SDS011;18207;32.078;34.818;2023-03-03T00:33:30;3.97;;;2.10;;
23617;SDS011;18207;32.078;34.818;2023-03-03T00:36:23;5.32;;;2.13;;
23617;SDS011;18207;32.078;34.818;2023-03-03T00:39:15;5.72;;;2.00;;
23617;SDS011;18207;32.078;34.818;2023-03-03T00:41:55;5.13;;;2.30;;
23617;SDS011;18207;32.078;34.818;2023-03-03T00:44:39;3.20;;;2.03;;
23617;SDS011;18207;32.078;34.818;2023-03-03T00:55:48;5.22;;;2.20;;
23617;SDS011;18207;32.078;34.818;2023-03-03T00:58:21;3.38;;;2.10;;
23617;SDS011;18207;32.078;34.818;2023-03-03T01:00:53;3.47;;;1.92;;
23617;SDS011;18207;32.078;34.818;2023-03-03T01:03:25;6.03;;;2.33;;
23617;SDS011;18207;32.078;34.818;2023-03-03T01:05:55;3.88;;;2.38;;
23617;SDS011;18207;32.078;34.818;2023-03-03T01:08:27;4.72;;;2.33;;
23617;SDS011;18207;32.078;34.818;2023-03-03T01:10:57;6.78;;;2.35;;
23617;SDS011;18207;32.078;34.818;2023-03-03T01:13:34;4.68;;;2.35;;
23617;SDS011;18207;32.078;34.818;2023-03-03T01:16:08;5.53;;;2.47;;
23617;SDS011;18207;32.078;34.818;2023-03-03T01:18:39;4.93;;;2.30;;
23617;SDS011;18207;32.078;34.818;2023-03-03T01:21:10;4.22;;;2.15;;
23617;SDS011;18207;32.078;34.818;2023-03-03T01:23:42;6.22;;;3.00;;
23617;SDS011;18207;32.078;34.818;2023-03-03T01:26:13;6.55;;;2.83;;
23617;SDS011;18207;32.078;34.818;2023-03-03T01:28:43;4.80;;;2.65;;
23617;SDS011;18207;32.078;34.818;2023-03-03T01:31:14;4.80;;;2.50;;
23617;SDS011;18207;32.078;34.818;2023-03-03T01:33:44;5.68;;;2.53;;
23617;SDS011;18207;32.078;34.818;2023-03-03T01:36:15;4.55;;;2.35;;
23617;SDS011;18207;32.078;34.818;2023-03-03T01:38:54;5.78;;;2.65;;
23617;SDS011;18207;32.078;34.818;2023-03-03T01:41:25;5.18;;;2.60;;
23617;SDS011;18207;32.078;34.818;2023-03-03T01:43:58;4.90;;;2.72;;
23617;SDS011;18207;32.078;34.818;2023-03-03T01:46:33;4.35;;;2.67;;
23617;SDS011;18207;32.078;34.818;2023-03-03T01:49:26;4.15;;;2.42;;
23617;SDS011;18207;32.078;34.818;2023-03-03T01:52:03;5.30;;;2.80;;
23617;SDS011;18207;32.078;34.818;2023-03-03T01:54:44;3.63;;;2.50;;
23617;SDS011;18207;32.078;34.818;2023-03-03T01:57:21;6.45;;;2.95;;
23617;SDS011;18207;32.078;34.818;2023-03-03T02:00:00;6.55;;;2.92;;
23617;SDS011;18207;32.078;34.818;2023-03-03T02:02:34;4.00;;;2.65;;
23617;SDS011;18207;32.078;34.818;2023-03-03T02:05:06;4.40;;;2.72;;
23617;SDS011;18207;32.078;34.818;2023-03-03T02:07:38;5.10;;;2.60;;
23617;SDS011;18207;32.078;34.818;2023-03-03T02:10:11;4.82;;;2.63;;
23617;SDS011;18207;32.078;34.818;2023-03-03T02:12:48;6.78;;;3.00;;
23617;SDS011;18207;32.078;34.818;2023-03-03T02:15:21;3.97;;;3.00;;
23617;SDS011;18207;32.078;34.818;2023-03-03T02:17:55;5.43;;;3.00;;
23617;SDS011;18207;32.078;34.818;2023-03-03T02:20:34;5.97;;;3.15;;
23617;SDS011;18207;32.078;34.818;2023-03-03T02:23:26;3.88;;;2.85;;
23617;SDS011;18207;32.078;34.818;2023-03-03T02:26:07;4.45;;;2.55;;
23617;SDS011;18207;32.078;34.818;2023-03-03T02:28:40;4.95;;;2.90;;
23617;SDS011;18207;32.078;34.818;2023-03-03T02:31:12;3.00;;;2.53;;
23617;SDS011;18207;32.078;34.818;2023-03-03T02:33:46;4.82;;;3.33;;
23617;SDS011;18207;32.078;34.818;2023-03-03T02:36:19;5.68;;;3.25;;
23617;SDS011;18207;32.078;34.818;2023-03-03T02:38:54;6.07;;;3.10;;
23617;SDS011;18207;32.078;34.818;2023-03-03T02:41:35;4.88;;;3.15;;
23617;SDS011;18207;32.078;34.818;2023-03-03T02:44:12;5.68;;;3.63;;
23617;SDS011;18207;32.078;34.818;2023-03-03T02:46:45;5.10;;;3.33;;
23617;SDS011;18207;32.078;34.818;2023-03-03T02:49:18;7.20;;;3.30;;
23617;SDS011;18207;32.078;34.818;2023-03-03T02:51:51;4.85;;;2.90;;
23617;SDS011;18207;32.078;34.818;2023-03-03T02:54:23;5.03;;;3.20;;
23617;SDS011;18207;32.078;34.818;2023-03-03T02:56:58;4.45;;;3.00;;
23617;SDS011;18207;32.078;34.818;2023-03-03T02:59:29;3.55;;;2.88;;
23617;SDS011;18207;32.078;34.818;2023-03-03T03:01:59;4.68;;;2.90;;
23617;SDS011;18207;32.078;34.818;2023-03-03T03:04:34;4.05;;;2.83;;
23617;SDS011;18207;32.078;34.818;2023-03-03T03:07:05;3.92;;;2.92;;
23617;SDS011;18207;32.078;34.818;2023-03-03T03:09:36;3.97;;;2.80;;
23617;SDS011;18207;32.078;34.818;2023-03-03T03:12:08;5.18;;;3.40;;
23617;SDS011;18207;32.078;34.818;2023-03-03T03:14:38;4.85;;;3.03;;
23617;SDS011;18207;32.078;34.818;2023-03-03T03:17:08;5.13;;;3.20;;
23617;SDS011;18207;32.078;34.818;2023-03-03T03:19:39;3.95;;;2.92;;
23617;SDS011;18207;32.078;34.818;2023-03-03T03:22:10;3.58;;;3.20;;
23617;SDS011;18207;32.078;34.818;2023-03-03T03:24:40;4.30;;;3.17;;
23617;SDS011;18207;32.078;34.818;2023-03-03T03:27:13;4.82;;;3.00;;
23617;SDS011;18207;32.078;34.818;2023-03-03T03:29:43;4.82;;;3.40;;
23617;SDS011;18207;32.078;34.818;2023-03-03T03:32:13;3.63;;;3.22;;
23617;SDS011;18207;32.078;34.818;2023-03-03T03:34:44;5.53;;;3.58;;
23617;SDS011;18207;32.078;34.818;2023-03-03T03:37:14;5.28;;;3.83;;
23617;SDS011;18207;32.078;34.818;2023-03-03T03:39:44;5.35;;;4.10;;
23617;SDS011;18207;32.078;34.818;2023-03-03T03:42:16;5.50;;;4.15;;
23617;SDS011;18207;32.078;34.818;2023-03-03T03:44:46;6.28;;;4.40;;
23617;SDS011;18207;32.078;34.818;2023-03-03T03:47:17;5.00;;;4.25;;
23617;SDS011;18207;32.078;34.818;2023-03-03T03:49:48;5.25;;;4.55;;
23617;SDS011;18207;32.078;34.818;2023-03-03T03:52:18;6.88;;;4.95;;
23617;SDS011;18207;32.078;34.818;2023-03-03T03:54:48;5.35;;;4.85;;
23617;SDS011;18207;32.078;34.818;2023-03-03T03:57:20;5.50;;;4.88;;
23617;SDS011;18207;32.078;34.818;2023-03-03T03:59:52;5.57;;;5.07;;
23617;SDS011;18207;32.078;34.818;2023-03-03T04:02:22;5.47;;;4.80;;
23617;SDS011;18207;32.078;34.818;2023-03-03T04:04:53;5.18;;;4.68;;
23617;SDS011;18207;32.078;34.818;2023-03-03T04:07:24;5.13;;;4.63;;
23617;SDS011;18207;32.078;34.818;2023-03-03T04:09:55;6.68;;;5.57;;
23617;SDS011;18207;32.078;34.818;2023-03-03T04:12:26;4.68;;;4.28;;
23617;SDS011;18207;32.078;34.818;2023-03-03T04:15:01;4.88;;;4.38;;
23617;SDS011;18207;32.078;34.818;2023-03-03T04:17:33;4.25;;;3.85;;
23617;SDS011;18207;32.078;34.818;2023-03-03T04:20:04;6.43;;;4.63;;
23617;SDS011;18207;32.078;34.818;2023-03-03T04:22:37;5.70;;;4.57;;
23617;SDS011;18207;32.078;34.818;2023-03-03T04:25:07;5.10;;;4.55;;
23617;SDS011;18207;32.078;34.818;2023-03-03T04:27:44;5.63;;;5.13;;
23617;SDS011;18207;32.078;34.818;2023-03-03T04:30:15;6.10;;;5.50;;
23617;SDS011;18207;32.078;34.818;2023-03-03T04:32:45;5.65;;;5.00;;
23617;SDS011;18207;32.078;34.818;2023-03-03T04:35:16;5.45;;;4.95;;
23617;SDS011;18207;32.078;34.818;2023-03-03T04:37:47;5.30;;;4.80;;
23617;SDS011;18207;32.078;34.818;2023-03-03T04:40:17;5.55;;;4.72;;
23617;SDS011;18207;32.078;34.818;2023-03-03T04:42:50;5.28;;;4.82;;
23617;SDS011;18207;32.078;34.818;2023-03-03T04:45:20;5.53;;;4.85;;
23617;SDS011;18207;32.078;34.818;2023-03-03T04:47:51;5.90;;;5.30;;
23617;SDS011;18207;32.078;34.818;2023-03-03T04:50:20;6.15;;;5.55;;
23617;SDS011;18207;32.078;34.818;2023-03-03T04:52:50;5.93;;;5.35;;
23617;SDS011;18207;32.078;34.818;2023-03-03T04:55:22;5.85;;;5.28;;
23617;SDS011;18207;32.078;34.818;2023-03-03T04:57:54;6.70;;;5.03;;
23617;SDS011;18207;32.078;34.818;2023-03-03T05:00:24;5.53;;;5.03;;
23617;SDS011;18207;32.078;34.818;2023-03-03T05:02:55;7.38;;;5.97;;
23617;SDS011;18207;32.078;34.818;2023-03-03T05:05:25;6.10;;;5.50;;
23617;SDS011;18207;32.078;34.818;2023-03-03T05:07:55;5.57;;;5.07;;
23617;SDS011;18207;32.078;34.818;2023-03-03T05:10:26;5.90;;;5.40;;
23617;SDS011;18207;32.078;34.818;2023-03-03T05:13:00;5.30;;;4.90;;
23617;SDS011;18207;32.078;34.818;2023-03-03T05:15:30;6.28;;;5.03;;
23617;SDS011;18207;32.078;34.818;2023-03-03T05:18:01;6.75;;;6.15;;
23617;SDS011;18207;32.078;34.818;2023-03-03T05:20:31;6.18;;;5.63;;
23617;SDS011;18207;32.078;34.818;2023-03-03T05:23:01;6.72;;;6.03;;
23617;SDS011;18207;32.078;34.818;2023-03-03T05:25:33;7.00;;;6.30;;
23617;SDS011;18207;32.078;34.818;2023-03-03T05:28:06;6.18;;;5.57;;
23617;SDS011;18207;32.078;34.818;2023-03-03T05:30:36;6.40;;;5.60;;
23617;SDS011;18207;32.078;34.818;2023-03-03T05:33:06;10.07;;;6.20;;
23617;SDS011;18207;32.078;34.818;2023-03-03T05:35:40;6.88;;;6.22;;
23617;SDS011;18207;32.078;34.818;2023-03-03T05:38:10;6.28;;;5.68;;
23617;SDS011;18207;32.078;34.818;2023-03-03T05:40:40;5.88;;;5.35;;
23617;SDS011;18207;32.078;34.818;2023-03-03T05:43:12;4.88;;;4.47;;
23617;SDS011;18207;32.078;34.818;2023-03-03T05:45:42;6.85;;;6.03;;
23617;SDS011;18207;32.078;34.818;2023-03-03T05:48:13;6.10;;;5.32;;
23617;SDS011;18207;32.078;34.818;2023-03-03T05:50:43;7.18;;;5.93;;
23617;SDS011;18207;32.078;34.818;2023-03-03T05:53:14;6.38;;;5.80;;
23617;SDS011;18207;32.078;34.818;2023-03-03T05:55:44;6.05;;;5.45;;
23617;SDS011;18207;32.078;34.818;2023-03-03T05:58:16;6.00;;;5.47;;
23617;SDS011;18207;32.078;34.818;2023-03-03T06:00:46;6.15;;;5.43;;
23617;SDS011;18207;32.078;34.818;2023-03-03T06:03:17;6.35;;;5.43;;
23617;SDS011;18207;32.078;34.818;2023-03-03T06:05:48;6.18;;;5.57;;
23617;SDS011;18207;32.078;34.818;2023-03-03T06:08:18;6.15;;;5.65;;
23617;SDS011;18207;32.078;34.818;2023-03-03T06:10:49;5.75;;;5.22;;
23617;SDS011;18207;32.078;34.818;2023-03-03T06:13:21;5.65;;;5.10;;
23617;SDS011;18207;32.078;34.818;2023-03-03T06:15:51;6.18;;;5.55;;
23617;SDS011;18207;32.078;34.818;2023-03-03T06:18:22;6.22;;;5.72;;
23617;SDS011;18207;32.078;34.818;2023-03-03T06:20:52;6.00;;;5.40;;
23617;SDS011;18207;32.078;34.818;2023-03-03T06:23:23;8.05;;;5.90;;
23617;SDS011;18207;32.078;34.818;2023-03-03T06:25:54;6.82;;;5.32;;
23617;SDS011;18207;32.078;34.818;2023-03-03T06:28:27;5.50;;;4.88;;
23617;SDS011;18207;32.078;34.818;2023-03-03T06:30:57;5.50;;;4.90;;
23617;SDS011;18207;32.078;34.818;2023-03-03T06:33:28;5.15;;;4.60;;
23617;SDS011;18207;32.078;34.818;2023-03-03T06:35:58;5.53;;;5.03;;
23617;SDS011;18207;32.078;34.818;2023-03-03T06:38:31;5.93;;;5.30;;
23617;SDS011;18207;32.078;34.818;2023-03-03T06:41:01;4.75;;;4.35;;
23617;SDS011;18207;32.078;34.818;2023-03-03T06:43:35;6.60;;;5.07;;
23617;SDS011;18207;32.078;34.818;2023-03-03T06:46:05;4.78;;;4.38;;
23617;SDS011;18207;32.078;34.818;2023-03-03T06:48:36;4.82;;;4.43;;
23617;SDS011;18207;32.078;34.818;2023-03-03T06:51:12;5.82;;;5.25;;
23617;SDS011;18207;32.078;34.818;2023-03-03T06:53:53;5.75;;;4.85;;
23617;SDS011;18207;32.078;34.818;2023-03-03T06:56:26;5.38;;;4.88;;
23617;SDS011;18207;32.078;34.818;2023-03-03T06:58:59;5.60;;;5.10;;
23617;SDS011;18207;32.078;34.818;2023-03-03T07:01:38;6.63;;;5.32;;
23617;SDS011;18207;32.078;34.818;2023-03-03T07:04:10;5.28;;;4.53;;
23617;SDS011;18207;32.078;34.818;2023-03-03T07:06:51;4.68;;;4.28;;
23617;SDS011;18207;32.078;34.818;2023-03-03T07:09:22;5.13;;;4.70;;
23617;SDS011;18207;32.078;34.818;2023-03-03T07:11:56;5.53;;;5.03;;
23617;SDS011;18207;32.078;34.818;2023-03-03T07:14:36;5.38;;;4.88;;
23617;SDS011;18207;32.078;34.818;2023-03-03T07:17:13;5.00;;;4.50;;
23617;SDS011;18207;32.078;34.818;2023-03-03T07:19:46;5.50;;;4.65;;
23617;SDS011;18207;32.078;34.818;2023-03-03T07:22:17;4.55;;;4.15;;
23617;SDS011;18207;32.078;34.818;2023-03-03T07:24:51;5.28;;;4.78;;
23617;SDS011;18207;32.078;34.818;2023-03-03T07:27:27;5.05;;;4.55;;
23617;SDS011;18207;32.078;34.818;2023-03-03T07:30:11;5.00;;;4.50;;
23617;SDS011;18207;32.078;34.818;2023-03-03T07:32:53;4.60;;;4.20;;
23617;SDS011;18207;32.078;34.818;2023-03-03T07:35:28;4.55;;;4.15;;
23617;SDS011;18207;32.078;34.818;2023-03-03T07:38:16;5.32;;;4.50;;
23617;SDS011;18207;32.078;34.818;2023-03-03T07:40:58;4.82;;;4.32;;
23617;SDS011;18207;32.078;34.818;2023-03-03T07:43:35;4.60;;;3.95;;
23617;SDS011;18207;32.078;34.818;2023-03-03T07:46:19;4.82;;;4.43;;
23617;SDS011;18207;32.078;34.818;2023-03-03T07:48:57;5.45;;;4.03;;
23617;SDS011;18207;32.078;34.818;2023-03-03T07:51:35;4.00;;;3.70;;
23617;SDS011;18207;32.078;34.818;2023-03-03T07:54:13;4.88;;;4.40;;
23617;SDS011;18207;32.078;34.818;2023-03-03T07:56:58;4.60;;;4.20;;
23617;SDS011;18207;32.078;34.818;2023-03-03T07:59:44;4.20;;;3.80;;
23617;SDS011;18207;32.078;34.818;2023-03-03T08:05:29;4.05;;;3.70;;
23617;SDS011;18207;32.078;34.818;2023-03-03T08:08:21;4.20;;;3.80;;
23617;SDS011;18207;32.078;34.818;2023-03-03T08:10:59;4.80;;;4.05;;
23617;SDS011;18207;32.078;34.818;2023-03-03T08:13:35;4.80;;;4.38;;
23617;SDS011;18207;32.078;34.818;2023-03-03T08:16:29;4.85;;;4.38;;
23617;SDS011;18207;32.078;34.818;2023-03-03T08:19:08;5.03;;;4.20;;
23617;SDS011;18207;32.078;34.818;2023-03-03T08:21:44;3.92;;;3.63;;
23617;SDS011;18207;32.078;34.818;2023-03-03T08:24:15;4.57;;;4.15;;
23617;SDS011;18207;32.078;34.818;2023-03-03T08:26:46;4.72;;;4.20;;
23617;SDS011;18207;32.078;34.818;2023-03-03T08:29:17;4.70;;;4.30;;
23617;SDS011;18207;32.078;34.818;2023-03-03T08:31:47;4.32;;;3.92;;
23617;SDS011;18207;32.078;34.818;2023-03-03T08:34:20;3.90;;;3.60;;
23617;SDS011;18207;32.078;34.818;2023-03-03T08:36:50;3.80;;;3.50;;
23617;SDS011;18207;32.078;34.818;2023-03-03T08:39:22;4.63;;;3.80;;
23617;SDS011;18207;32.078;34.818;2023-03-03T08:41:53;4.45;;;4.05;;
23617;SDS011;18207;32.078;34.818;2023-03-03T08:44:23;4.55;;;4.15;;
23617;SDS011;18207;32.078;34.818;2023-03-03T08:46:54;5.80;;;4.35;;
23617;SDS011;18207;32.078;34.818;2023-03-03T08:49:26;4.20;;;3.80;;
23617;SDS011;18207;32.078;34.818;2023-03-03T08:51:56;4.45;;;4.03;;
23617;SDS011;18207;32.078;34.818;2023-03-03T08:54:28;4.30;;;3.90;;
23617;SDS011;18207;32.078;34.818;2023-03-03T08:57:02;4.90;;;4.20;;
23617;SDS011;18207;32.078;34.818;2023-03-03T08:59:32;4.30;;;3.90;;
23617;SDS011;18207;32.078;34.818;2023-03-03T09:02:05;3.95;;;3.53;;
23617;SDS011;18207;32.078;34.818;2023-03-03T09:04:38;4.07;;;3.55;;
23617;SDS011;18207;32.078;34.818;2023-03-03T09:07:08;4.07;;;3.60;;
23617;SDS011;18207;32.078;34.818;2023-03-03T09:09:39;4.40;;;4.00;;
23617;SDS011;18207;32.078;34.818;2023-03-03T09:12:13;4.47;;;4.07;;
23617;SDS011;18207;32.078;34.818;2023-03-03T09:14:47;4.18;;;3.58;;
23617;SDS011;18207;32.078;34.818;2023-03-03T09:17:23;5.30;;;4.15;;
23617;SDS011;18207;32.078;34.818;2023-03-03T09:20:09;4.55;;;4.13;;
23617;SDS011;18207;32.078;34.818;2023-03-03T09:22:58;4.53;;;4.10;;
23617;SDS011;18207;32.078;34.818;2023-03-03T09:25:55;5.00;;;4.50;;
23617;SDS011;18207;32.078;34.818;2023-03-03T09:28:39;4.35;;;3.92;;
23617;SDS011;18207;32.078;34.818;2023-03-03T09:31:16;4.82;;;4.05;;
23617;SDS011;18207;32.078;34.818;2023-03-03T09:33:54;4.18;;;3.72;;
23617;SDS011;18207;32.078;34.818;2023-03-03T09:36:28;4.20;;;3.80;;
23617;SDS011;18207;32.078;34.818;2023-03-03T09:39:11;4.93;;;4.20;;
23617;SDS011;18207;32.078;34.818;2023-03-03T09:45:12;4.80;;;4.40;;
23617;SDS011;18207;32.078;34.818;2023-03-03T09:54:45;5.10;;;4.07;;
23617;SDS011;18207;32.078;34.818;2023-03-03T09:57:30;4.40;;;4.00;;
23617;SDS011;18207;32.078;34.818;2023-03-03T10:00:38;5.13;;;4.45;;
23617;SDS011;18207;32.078;34.818;2023-03-03T10:03:33;4.53;;;4.13;;
23617;SDS011;18207;32.078;34.818;2023-03-03T10:06:26;4.28;;;3.88;;
23617;SDS011;18207;32.078;34.818;2023-03-03T10:09:15;4.40;;;4.00;;
23617;SDS011;18207;32.078;34.818;2023-03-03T10:12:21;4.38;;;3.97;;
23617;SDS011;18207;32.078;34.818;2023-03-03T10:15:11;4.57;;;4.18;;
23617;SDS011;18207;32.078;34.818;2023-03-03T10:18:11;4.18;;;3.83;;
23617;SDS011;18207;32.078;34.818;2023-03-03T10:20:57;5.22;;;4.22;;
23617;SDS011;18207;32.078;34.818;2023-03-03T10:23:45;5.30;;;4.43;;
23617;SDS011;18207;32.078;34.818;2023-03-03T10:30:00;4.70;;;4.30;;
23617;SDS011;18207;32.078;34.818;2023-03-03T10:32:45;4.47;;;4.07;;
23617;SDS011;18207;32.078;34.818;2023-03-03T10:35:35;4.70;;;4.10;;
23617;SDS011;18207;32.078;34.818;2023-03-03T10:38:44;4.20;;;3.85;;
23617;SDS011;18207;32.078;34.818;2023-03-03T10:41:30;5.05;;;4.38;;
23617;SDS011;18207;32.078;34.818;2023-03-03T10:47:45;5.85;;;5.30;;
23617;SDS011;18207;32.078;34.818;2023-03-03T10:50:35;5.15;;;4.65;;
23617;SDS011;18207;32.078;34.818;2023-03-03T10:53:26;5.03;;;4.63;;
23617;SDS011;18207;32.078;34.818;2023-03-03T10:56:14;4.85;;;4.35;;
23617;SDS011;18207;32.078;34.818;2023-03-03T11:02:26;5.05;;;4.55;;
23617;SDS011;18207;32.078;34.818;2023-03-03T11:05:11;4.80;;;4.25;;
23617;SDS011;18207;32.078;34.818;2023-03-03T11:08:00;5.28;;;4.80;;
23617;SDS011;18207;32.078;34.818;2023-03-03T11:10:45;5.18;;;4.72;;
23617;SDS011;18207;32.078;34.818;2023-03-03T11:13:30;5.60;;;5.10;;
23617;SDS011;18207;32.078;34.818;2023-03-03T11:16:16;5.53;;;5.03;;
23617;SDS011;18207;32.078;34.818;2023-03-03T11:22:18;4.70;;;4.30;;
23617;SDS011;18207;32.078;34.818;2023-03-03T11:25:13;5.45;;;4.95;;
23617;SDS011;18207;32.078;34.818;2023-03-03T11:31:13;4.80;;;4.40;;
23617;SDS011;18207;32.078;34.818;2023-03-03T11:33:58;4.80;;;4.40;;
23617;SDS011;18207;32.078;34.818;2023-03-03T11:36:42;4.97;;;4.03;;
23617;SDS011;18207;32.078;34.818;2023-03-03T11:39:23;4.30;;;3.90;;
23617;SDS011;18207;32.078;34.818;2023-03-03T11:41:58;6.43;;;4.32;;
23617;SDS011;18207;32.078;34.818;2023-03-03T11:44:44;4.82;;;4.43;;
23617;SDS011;18207;32.078;34.818;2023-03-03T11:47:22;5.78;;;5.18;;
23617;SDS011;18207;32.078;34.818;2023-03-03T11:49:59;5.07;;;4.55;;
23617;SDS011;18207;32.078;34.818;2023-03-03T11:52:39;5.15;;;4.65;;
23617;SDS011;18207;32.078;34.818;2023-03-03T11:55:20;5.13;;;4.22;;
23617;SDS011;18207;32.078;34.818;2023-03-03T11:58:03;5.18;;;4.53;;
23617;SDS011;18207;32.078;34.818;2023-03-03T12:00:46;4.82;;;4.43;;
23617;SDS011;18207;32.078;34.818;2023-03-03T12:03:28;5.43;;;4.97;;
23617;SDS011;18207;32.078;34.818;2023-03-03T12:06:09;6.93;;;5.95;;
23617;SDS011;18207;32.078;34.818;2023-03-03T12:12:12;5.88;;;5.38;;
23617;SDS011;18207;32.078;34.818;2023-03-03T12:14:56;5.65;;;5.20;;
23617;SDS011;18207;32.078;34.818;2023-03-03T12:17:47;5.57;;;5.07;;
23617;SDS011;18207;32.078;34.818;2023-03-03T12:20:46;5.88;;;5.38;;
23617;SDS011;18207;32.078;34.818;2023-03-03T12:23:36;6.00;;;5.40;;
23617;SDS011;18207;32.078;34.818;2023-03-03T12:26:39;6.50;;;5.85;;
23617;SDS011;18207;32.078;34.818;2023-03-03T12:29:31;5.55;;;4.95;;
23617;SDS011;18207;32.078;34.818;2023-03-03T12:32:15;5.68;;;5.18;;
23617;SDS011;18207;32.078;34.818;2023-03-03T12:35:24;6.60;;;5.85;;
23617;SDS011;18207;32.078;34.818;2023-03-03T12:38:06;6.15;;;5.55;;
23617;SDS011;18207;32.078;34.818;2023-03-03T12:40:55;6.53;;;5.85;;
23617;SDS011;18207;32.078;34.818;2023-03-03T12:43:45;6.07;;;5.47;;
23617;SDS011;18207;32.078;34.818;2023-03-03T12:46:29;6.05;;;5.53;;
23617;SDS011;18207;32.078;34.818;2023-03-03T12:49:14;5.75;;;5.22;;
23617;SDS011;18207;32.078;34.818;2023-03-03T12:51:47;6.05;;;5.55;;
23617;SDS011;18207;32.078;34.818;2023-03-03T12:54:41;5.43;;;4.97;;
23617;SDS011;18207;32.078;34.818;2023-03-03T12:57:32;6.15;;;5.25;;
23617;SDS011;18207;32.078;34.818;2023-03-03T13:03:17;5.85;;;5.30;;
23617;SDS011;18207;32.078;34.818;2023-03-03T13:06:22;4.80;;;4.40;;
23617;SDS011;18207;32.078;34.818;2023-03-03T13:09:06;6.63;;;5.32;;
23617;SDS011;18207;32.078;34.818;2023-03-03T13:12:05;5.03;;;4.53;;
23617;SDS011;18207;32.078;34.818;2023-03-03T13:15:08;5.72;;;5.22;;
23617;SDS011;18207;32.078;34.818;2023-03-03T13:18:02;5.00;;;4.47;;
23617;SDS011;18207;32.078;34.818;2023-03-03T13:20:58;5.75;;;5.15;;
23617;SDS011;18207;32.078;34.818;2023-03-03T13:23:40;5.00;;;4.57;;
23617;SDS011;18207;32.078;34.818;2023-03-03T13:26:21;5.30;;;4.78;;
23617;SDS011;18207;32.078;34.818;2023-03-03T13:29:10;5.63;;;5.13;;
23617;SDS011;18207;32.078;34.818;2023-03-03T13:31:50;6.78;;;4.93;;
23617;SDS011;18207;32.078;34.818;2023-03-03T13:35:04;5.30;;;4.55;;
23617;SDS011;18207;32.078;34.818;2023-03-03T13:37:45;5.30;;;4.80;;
23617;SDS011;18207;32.078;34.818;2023-03-03T13:40:21;5.70;;;5.10;;
23617;SDS011;18207;32.078;34.818;2023-03-03T13:42:57;5.43;;;4.78;;
23617;SDS011;18207;32.078;34.818;2023-03-03T13:45:34;4.82;;;4.32;;
23617;SDS011;18207;32.078;34.818;2023-03-03T13:48:22;4.63;;;4.22;;
23617;SDS011;18207;32.078;34.818;2023-03-03T13:51:16;4.50;;;4.13;;
23617;SDS011;18207;32.078;34.818;2023-03-03T13:54:03;5.20;;;4.80;;
23617;SDS011;18207;32.078;34.818;2023-03-03T13:56:58;4.43;;;4.03;;
23617;SDS011;18207;32.078;34.818;2023-03-03T13:59:50;4.75;;;4.30;;
23617;SDS011;18207;32.078;34.818;2023-03-03T14:02:42;4.97;;;4.50;;
23617;SDS011;18207;32.078;34.818;2023-03-03T14:05:36;4.50;;;4.05;;
23617;SDS011;18207;32.078;34.818;2023-03-03T14:08:17;4.75;;;4.35;;
23617;SDS011;18207;32.078;34.818;2023-03-03T14:11:13;5.28;;;3.92;;
23617;SDS011;18207;32.078;34.818;2023-03-03T14:13:59;4.40;;;4.00;;
23617;SDS011;18207;32.078;34.818;2023-03-03T14:16:47;4.43;;;4.03;;
23617;SDS011;18207;32.078;34.818;2023-03-03T14:19:25;4.13;;;3.72;;
23617;SDS011;18207;32.078;34.818;2023-03-03T14:22:11;4.55;;;4.25;;
23617;SDS011;18207;32.078;34.818;2023-03-03T14:24:59;4.93;;;4.43;;
23617;SDS011;18207;32.078;34.818;2023-03-03T14:27:36;4.82;;;4.15;;
23617;SDS011;18207;32.078;34.818;2023-03-03T14:30:26;4.43;;;4.03;;
23617;SDS011;18207;32.078;34.818;2023-03-03T14:33:01;4.60;;;4.25;;
23617;SDS011;18207;32.078;34.818;2023-03-03T14:35:49;4.55;;;4.15;;
23617;SDS011;18207;32.078;34.818;2023-03-03T14:38:38;4.72;;;4.32;;
23617;SDS011;18207;32.078;34.818;2023-03-03T14:41:20;4.47;;;4.07;;
23617;SDS011;18207;32.078;34.818;2023-03-03T14:47:19;4.13;;;3.83;;
23617;SDS011;18207;32.078;34.818;2023-03-03T14:49:52;5.45;;;3.92;;
23617;SDS011;18207;32.078;34.818;2023-03-03T14:52:26;4.57;;;4.10;;
23617;SDS011;18207;32.078;34.818;2023-03-03T14:55:23;5.03;;;4.63;;
23617;SDS011;18207;32.078;34.818;2023-03-03T14:58:06;4.50;;;4.20;;
23617;SDS011;18207;32.078;34.818;2023-03-03T15:01:07;4.68;;;4.25;;
23617;SDS011;18207;32.078;34.818;2023-03-03T15:03:45;5.05;;;4.10;;
23617;SDS011;18207;32.078;34.818;2023-03-03T15:06:32;4.57;;;3.97;;
23617;SDS011;18207;32.078;34.818;2023-03-03T15:09:30;4.50;;;4.10;;
23617;SDS011;18207;32.078;34.818;2023-03-03T15:12:16;3.88;;;3.53;;
23617;SDS011;18207;32.078;34.818;2023-03-03T15:15:01;4.30;;;3.97;;
23617;SDS011;18207;32.078;34.818;2023-03-03T15:17:52;4.45;;;4.05;;
23617;SDS011;18207;32.078;34.818;2023-03-03T15:23:34;4.40;;;3.97;;
23617;SDS011;18207;32.078;34.818;2023-03-03T15:26:27;4.30;;;4.00;;
23617;SDS011;18207;32.078;34.818;2023-03-03T15:29:11;4.13;;;3.72;;
23617;SDS011;18207;32.078;34.818;2023-03-03T15:31:53;3.97;;;3.60;;
23617;SDS011;18207;32.078;34.818;2023-03-03T15:34:36;4.15;;;3.78;;
23617;SDS011;18207;32.078;34.818;2023-03-03T15:37:23;4.05;;;3.75;;
23617;SDS011;18207;32.078;34.818;2023-03-03T15:40:13;4.03;;;3.58;;
23617;SDS011;18207;32.078;34.818;2023-03-03T15:42:56;5.07;;;3.95;;
23617;SDS011;18207;32.078;34.818;2023-03-03T15:45:41;4.10;;;3.70;;
23617;SDS011;18207;32.078;34.818;2023-03-03T15:48:25;3.95;;;3.25;;
23617;SDS011;18207;32.078;34.818;2023-03-03T15:51:37;4.03;;;3.70;;
23617;SDS011;18207;32.078;34.818;2023-03-03T15:54:35;3.95;;;3.65;;
23617;SDS011;18207;32.078;34.818;2023-03-03T15:57:16;3.83;;;3.45;;
23617;SDS011;18207;32.078;34.818;2023-03-03T16:00:09;5.03;;;3.75;;
23617;SDS011;18207;32.078;34.818;2023-03-03T16:03:09;3.78;;;3.47;;
23617;SDS011;18207;32.078;34.818;2023-03-03T16:05:53;4.35;;;3.85;;
23617;SDS011;18207;32.078;34.818;2023-03-03T16:08:42;4.13;;;3.50;;
23617;SDS011;18207;32.078;34.818;2023-03-03T16:11:23;3.85;;;3.47;;
23617;SDS011;18207;32.078;34.818;2023-03-03T16:14:17;3.78;;;3.47;;
23617;SDS011;18207;32.078;34.818;2023-03-03T16:17:21;4.03;;;3.70;;
23617;SDS011;18207;32.078;34.818;2023-03-03T16:20:03;4.35;;;3.63;;
23617;SDS011;18207;32.078;34.818;2023-03-03T16:22:55;4.28;;;3.88;;
23617;SDS011;18207;32.078;34.818;2023-03-03T16:29:05;4.50;;;4.10;;
23617;SDS011;18207;32.078;34.818;2023-03-03T16:32:01;4.47;;;4.07;;
23617;SDS011;18207;32.078;34.818;2023-03-03T16:34:42;4.90;;;4.50;;
23617;SDS011;18207;32.078;34.818;2023-03-03T16:37:26;4.70;;;4.30;;
23617;SDS011;18207;32.078;34.818;2023-03-03T16:40:10;5.47;;;4.30;;